Time;durP1;ratioP1;P1;durP2;ratioP2;P2;SDS_P1;SDS_P2;PMS_P1;PMS_P2;Temp;Humidity;BMP_temperature;BMP_pressure;BME280_temperature;BME280_humidity;BME280_pressure;Samples;Min_cycle;Max_cycle;Signal;HPM_P1;HPM_P2
2021/12/25 08:05:32;;;;;;;10.60;7.00;;;;;;;2.75;71.60;99253.15;1851187;77;22735;-74
2021/12/25 08:07:59;;;;;;;11.60;7.97;;;;;;;2.76;70.73;99257.38;1846852;77;22287;-72
2021/12/25 08:10:25;;;;;;;10.98;7.60;;;;;;;2.76;70.07;99253.42;1847405;77;21462;-72
2021/12/25 08:12:56;;;;;;;9.85;6.85;;;;;;;2.77;69.83;99260.31;1842772;77;21532;-72
2021/12/25 08:15:28;;;;;;;11.28;7.45;;;;;;;2.75;69.48;99278.20;1847118;77;21679;-72
2021/12/25 08:17:57;;;;;;;9.88;6.80;;;;;;;2.76;68.59;99271.88;1847484;77;21089;-72
2021/12/25 08:20:26;;;;;;;9.48;6.70;;;;;;;2.77;68.15;99265.59;1802797;77;21023;-72
2021/12/25 08:23:11;;;;;;;11.60;6.80;;;;;;;2.84;67.75;99274.67;1821721;78;20975;-74
2021/12/25 08:25:57;;;;;;;11.80;6.70;;;;;;;2.93;67.48;99266.12;1818161;78;21013;-71
2021/12/25 08:28:38;;;;;;;9.98;6.90;;;;;;;3.04;66.56;99280.28;1822765;78;20927;-72
2021/12/25 08:31:24;;;;;;;11.55;7.17;;;;;;;3.11;65.99;99273.00;1785723;80;20964;-71
2021/12/25 08:33:52;;;;;;;11.22;7.92;;;;;;;3.15;65.25;99283.87;1830349;77;21014;-72
2021/12/25 08:36:26;;;;;;;12.18;7.50;;;;;;;3.13;64.96;99280.70;1818388;78;21527;-72
2021/12/25 08:38:53;;;;;;;10.58;7.50;;;;;;;3.05;64.65;99278.70;1822956;78;21000;-72
2021/12/25 08:41:21;;;;;;;10.98;7.10;;;;;;;3.07;64.90;99308.03;1822949;78;20971;-72
2021/12/25 08:43:49;;;;;;;10.95;7.40;;;;;;;3.08;64.89;99299.06;1822382;78;20964;-72
2021/12/25 08:46:24;;;;;;;11.73;7.90;;;;;;;3.07;65.11;99318.05;1823064;78;21027;-72
2021/12/25 08:48:46;;;;;;;10.48;7.30;;;;;;;3.08;65.20;99318.85;1821272;78;21139;-72
2021/12/25 08:51:12;;;;;;;12.23;7.97;;;;;;;3.04;64.59;99323.28;1823024;78;21035;-72
2021/12/25 08:53:41;;;;;;;12.93;7.80;;;;;;;2.99;64.57;99321.06;1822520;78;21034;-72
2021/12/25 08:56:07;;;;;;;12.47;8.43;;;;;;;2.94;64.02;99315.20;1801350;78;21051;-72
2021/12/25 08:58:34;;;;;;;10.45;7.50;;;;;;;2.93;64.01;99308.33;1824433;78;21080;-72
2021/12/25 09:01:04;;;;;;;11.30;7.40;;;;;;;2.96;63.87;99311.81;1824622;78;21156;-73
2021/12/25 09:03:30;;;;;;;11.38;7.12;;;;;;;2.97;63.53;99317.36;1824491;78;21044;-72
2021/12/25 09:05:59;;;;;;;10.50;7.20;;;;;;;3.01;63.24;99301.33;1824696;78;21076;-72
2021/12/25 09:08:26;;;;;;;11.73;7.75;;;;;;;3.04;63.06;99311.94;1824740;78;21071;-72
2021/12/25 09:10:54;;;;;;;13.22;8.20;;;;;;;3.03;62.62;99323.02;1824793;78;21039;-72
2021/12/25 09:13:22;;;;;;;13.22;8.20;;;;;;;3.00;62.78;99319.53;1824133;78;21510;-72
2021/12/25 09:15:50;;;;;;;11.78;7.30;;;;;;;3.02;62.78;99324.03;1855393;77;21120;-72
2021/12/25 09:18:16;;;;;;;13.28;8.70;;;;;;;3.04;62.32;99311.41;1857642;77;21022;-72
2021/12/25 09:20:44;;;;;;;11.75;8.48;;;;;;;3.07;62.40;99313.30;1857900;77;21417;-71
2021/12/25 09:23:11;;;;;;;13.43;8.43;;;;;;;3.09;62.58;99316.48;1857694;77;20972;-71
2021/12/25 09:25:37;;;;;;;12.47;8.18;;;;;;;3.08;61.98;99317.53;1857744;77;21837;-72
2021/12/25 09:28:04;;;;;;;13.00;8.10;;;;;;;3.08;61.80;99326.24;1857735;77;21030;-72
2021/12/25 09:30:31;;;;;;;11.68;7.45;;;;;;;3.05;61.76;99330.15;1857912;77;21576;-73
2021/12/25 09:32:59;;;;;;;12.40;7.87;;;;;;;3.07;61.94;99335.73;1857666;77;20995;-72
2021/12/25 09:35:25;;;;;;;13.83;8.75;;;;;;;3.06;61.30;99345.48;1857947;77;21219;-72
2021/12/25 09:37:52;;;;;;;12.30;7.87;;;;;;;3.08;61.35;99349.19;1858183;77;21509;-72
2021/12/25 09:40:18;;;;;;;13.22;8.80;;;;;;;3.14;61.18;99349.05;1857578;77;21453;-72
2021/12/25 09:42:45;;;;;;;10.95;7.33;;;;;;;3.32;61.10;99359.09;1857935;77;20963;-73
2021/12/25 09:45:12;;;;;;;10.18;7.05;;;;;;;3.51;60.87;99365.75;1857690;77;20987;-73
2021/12/25 09:47:39;;;;;;;11.60;7.65;;;;;;;3.69;60.84;99362.09;1857623;77;20986;-70
2021/12/25 09:50:07;;;;;;;12.00;7.87;;;;;;;3.87;60.28;99380.83;1857352;77;21481;-71
2021/12/25 09:52:34;;;;;;;10.48;6.60;;;;;;;3.89;58.71;99371.62;1857585;77;20928;-71
2021/12/25 09:55:01;;;;;;;9.83;5.85;;;;;;;3.87;57.63;99360.49;1857183;77;21159;-70
2021/12/25 09:57:27;;;;;;;8.78;5.53;;;;;;;3.86;57.12;99362.86;1857769;77;21462;-71
2021/12/25 09:59:54;;;;;;;8.83;6.00;;;;;;;3.80;56.78;99357.22;1857268;77;21509;-71
2021/12/25 10:02:21;;;;;;;9.28;6.25;;;;;;;3.68;57.30;99359.14;1856647;77;21007;-70
2021/12/25 10:04:50;;;;;;;9.83;6.35;;;;;;;3.50;57.60;99370.23;1857291;77;21112;-71
2021/12/25 10:07:28;;;;;;;10.10;6.62;;;;;;;3.36;57.79;99371.59;1828745;77;21415;-71
2021/12/25 10:10:13;;;;;;;10.20;6.60;;;;;;;3.22;57.37;99377.66;1832680;77;21343;-71
2021/12/25 10:12:47;;;;;;;10.10;6.33;;;;;;;3.08;57.28;99382.96;1833877;78;20943;-71
2021/12/25 10:15:21;;;;;;;8.95;5.30;;;;;;;2.97;57.24;99382.50;1833711;78;21152;-71
2021/12/25 10:17:57;;;;;;;7.80;4.75;;;;;;;2.88;56.35;99397.89;1833293;78;21038;-71
2021/12/25 10:20:30;;;;;;;7.62;4.15;;;;;;;2.77;55.42;99392.95;1831865;77;20951;-72
2021/12/25 10:23:06;;;;;;;7.53;4.30;;;;;;;2.65;54.66;99386.10;1833309;78;21117;-72
2021/12/25 10:25:47;;;;;;;7.17;3.83;;;;;;;2.57;54.94;99404.41;1801296;79;20947;-71
2021/12/25 10:28:17;;;;;;;8.78;4.87;;;;;;;2.49;55.30;99395.02;1833007;78;21159;-71
2021/12/25 10:30:49;;;;;;;9.08;4.92;;;;;;;2.44;55.63;99398.87;1801617;78;20988;-71
2021/12/25 10:33:26;;;;;;;7.47;4.40;;;;;;;2.41;55.57;99400.66;1833746;78;21048;-72
2021/12/25 10:35:55;;;;;;;7.83;4.58;;;;;;;2.36;54.64;99391.31;1833832;78;21529;-71
2021/12/25 10:38:24;;;;;;;6.45;3.70;;;;;;;2.38;54.74;99397.16;1833593;78;21172;-73
2021/12/25 10:41:03;;;;;;;5.10;2.98;;;;;;;2.38;52.21;99412.97;1833808;78;21434;-72
2021/12/25 10:43:30;;;;;;;6.28;3.42;;;;;;;2.38;49.33;99402.43;1798747;78;20987;-70
2021/12/25 10:46:00;;;;;;;5.03;2.85;;;;;;;2.39;47.59;99423.79;1832188;78;21053;-73
2021/12/25 10:48:29;;;;;;;5.78;3.12;;;;;;;2.43;47.07;99413.59;1831361;78;20998;-72
2021/12/25 10:50:58;;;;;;;4.37;2.40;;;;;;;2.45;46.72;99420.23;1831893;78;21611;-70
2021/12/25 10:53:27;;;;;;;5.60;3.10;;;;;;;2.46;45.31;99429.73;1831479;78;21124;-72
2021/12/25 10:56:12;;;;;;;5.47;2.65;;;;;;;2.49;44.15;99417.94;1831687;78;21570;-72
2021/12/25 10:58:41;;;;;;;4.58;2.40;;;;;;;2.51;43.84;99428.54;1806387;78;20999;-72
2021/12/25 11:01:11;;;;;;;5.12;2.27;;;;;;;2.32;43.27;99430.50;1831718;78;21029;-72
2021/12/25 11:03:41;;;;;;;4.53;2.05;;;;;;;2.30;42.93;99439.16;1831403;78;21022;-72
2021/12/25 11:06:18;;;;;;;4.53;2.37;;;;;;;2.32;41.89;99425.23;1831730;78;21066;-73
2021/12/25 11:08:46;;;;;;;3.58;1.80;;;;;;;2.33;41.41;99397.84;1831495;78;21494;-73
2021/12/25 11:11:18;;;;;;;4.87;1.50;;;;;;;2.32;41.19;99444.19;1831758;78;20947;-73
2021/12/25 11:13:52;;;;;;;4.08;1.40;;;;;;;2.29;39.41;99448.60;1830248;78;21030;-71
2021/12/25 11:16:27;;;;;;;3.60;1.65;;;;;;;2.42;37.09;99454.16;1831445;78;20986;-72
2021/12/25 11:19:10;;;;;;;3.45;1.30;;;;;;;2.42;37.65;99462.86;1833454;78;21150;-72
2021/12/25 11:21:55;;;;;;;4.37;1.80;;;;;;;2.43;37.71;99464.97;1833898;78;21038;-71
2021/12/25 11:24:25;;;;;;;4.55;1.55;;;;;;;2.40;37.94;99459.64;1833634;78;21493;-71
2021/12/25 11:27:06;;;;;;;4.85;2.00;;;;;;;2.40;38.29;99470.19;1834042;78;20987;-72
2021/12/25 11:29:32;;;;;;;3.80;1.85;;;;;;;2.38;38.53;99470.95;1832851;78;21121;-72
2021/12/25 11:31:59;;;;;;;5.72;2.02;;;;;;;2.38;38.63;99478.85;1829204;78;21110;-71
2021/12/25 11:34:27;;;;;;;5.45;2.52;;;;;;;2.36;39.47;99478.27;1817493;77;21093;-71
2021/12/25 11:36:56;;;;;;;4.10;2.35;;;;;;;2.37;40.27;99479.89;1819761;77;21006;-71
2021/12/25 11:39:25;;;;;;;6.05;2.80;;;;;;;2.38;40.79;99485.44;1826337;78;21122;-71
2021/12/25 11:41:59;;;;;;;5.07;2.47;;;;;;;2.38;40.75;99500.45;1569703;77;9999998;-73
2021/12/25 11:44:45;;;;;;;6.03;2.92;;;;;;;2.36;40.84;99487.49;1830742;78;21144;-74
2021/12/25 11:47:38;;;;;;;5.58;3.00;;;;;;;2.32;40.46;99514.02;1833111;78;21000;-74
2021/12/25 11:50:13;;;;;;;6.03;2.80;;;;;;;2.24;40.79;99508.58;1790625;78;21028;-73
2021/12/25 11:52:49;;;;;;;6.97;3.00;;;;;;;2.17;41.19;99501.80;1812886;77;21465;-74
2021/12/25 11:55:47;;;;;;;7.58;4.08;;;;;;;2.17;41.64;99520.23;1807784;78;21132;-73
2021/12/25 12:00:48;;;;;;;7.83;4.10;;;;;;;2.10;41.25;99526.92;1809296;78;21053;-72
2021/12/25 12:03:44;;;;;;;6.80;3.52;;;;;;;2.04;41.64;99514.17;1815436;77;20982;-73
2021/12/25 12:06:14;;;;;;;6.05;2.92;;;;;;;1.98;42.08;99521.66;1829258;78;21149;-72
2021/12/25 12:08:58;;;;;;;7.70;3.87;;;;;;;1.93;42.83;99545.73;1846345;76;21042;-72
2021/12/25 12:11:50;;;;;;;7.65;3.90;;;;;;;1.86;42.95;99539.25;1810970;78;21101;-73
2021/12/25 12:14:28;;;;;;;7.62;3.83;;;;;;;1.79;43.03;99547.75;1817188;78;20963;-74
2021/12/25 12:17:22;;;;;;;7.97;4.15;;;;;;;1.75;43.09;99549.23;1854818;77;21434;-73
2021/12/25 12:19:53;;;;;;;13.40;4.53;;;;;;;1.73;43.64;99559.17;1819186;77;21137;-72
2021/12/25 12:22:34;;;;;;;6.90;3.90;;;;;;;1.70;44.30;99562.25;1812587;77;21011;-73
2021/12/25 12:25:23;;;;;;;7.42;4.05;;;;;;;1.69;44.76;99555.39;1828482;77;20990;-72
2021/12/25 12:28:01;;;;;;;7.62;4.10;;;;;;;1.71;44.92;99565.16;1828692;77;21052;-72
2021/12/25 12:30:48;;;;;;;7.28;3.83;;;;;;;1.73;44.79;99547.33;1686432;77;10000500;-71
2021/12/25 12:33:21;;;;;;;7.10;4.08;;;;;;;1.77;44.66;99561.64;1818760;78;21021;-71
2021/12/25 12:35:51;;;;;;;7.17;4.30;;;;;;;1.80;44.70;99567.27;1817052;78;21470;-74
2021/12/25 12:38:44;;;;;;;8.35;4.10;;;;;;;1.82;44.70;99571.00;1811801;78;21041;-73
2021/12/25 12:41:34;;;;;;;8.23;4.40;;;;;;;1.81;45.63;99584.69;1796430;77;21069;-72
2021/12/25 12:44:15;;;;;;;7.37;4.42;;;;;;;1.75;46.68;99588.72;1800626;77;21113;-73
2021/12/25 12:46:53;;;;;;;;;;;;;;;1.61;46.59;99577.54;1826383;78;21105;-73
2021/12/25 12:49:41;;;;;;;8.48;4.12;;;;;;;1.52;46.81;99594.69;1830135;77;20150;-74
2021/12/25 12:52:17;;;;;;;8.98;4.12;;;;;;;1.43;46.92;99594.17;1815915;77;21086;-74
2021/12/25 12:54:52;;;;;;;6.22;3.77;;;;;;;1.35;46.45;99604.48;1816196;78;21667;-73
2021/12/25 12:57:31;;;;;;;7.92;4.40;;;;;;;1.26;46.53;99602.37;1823495;78;21188;-73
2021/12/25 13:00:14;;;;;;;8.18;4.60;;;;;;;1.12;46.90;99614.34;1805949;77;21094;-72
2021/12/25 13:02:45;;;;;;;7.40;4.17;;;;;;;1.04;47.47;99623.81;1801823;78;21108;-73
2021/12/25 13:05:15;;;;;;;7.42;4.12;;;;;;;1.00;47.21;99624.48;1820764;78;21035;-72
2021/12/25 13:07:45;;;;;;;8.00;4.37;;;;;;;0.93;47.22;99641.63;1789312;77;21078;-73
2021/12/25 13:10:20;;;;;;;7.87;4.22;;;;;;;0.88;47.19;99630.94;1827724;77;21533;-73
2021/12/25 13:12:46;;;;;;;9.98;4.45;;;;;;;0.86;46.70;99640.89;1810582;78;21114;-74
2021/12/25 13:15:17;;;;;;;6.60;3.62;;;;;;;0.83;46.39;99640.00;1849666;77;21604;-72
2021/12/25 13:17:57;;;;;;;7.50;3.75;;;;;;;0.78;46.05;99634.06;1831376;77;21129;-72
2021/12/25 13:20:46;;;;;;;8.23;4.28;;;;;;;0.70;46.07;99639.09;1851536;77;21066;-72
2021/12/25 13:23:28;;;;;;;9.38;5.53;;;;;;;0.62;45.76;99656.42;1822168;78;21125;-71
2021/12/25 13:25:58;;;;;;;8.03;3.87;;;;;;;0.55;45.92;99666.69;1820219;77;21035;-72
2021/12/25 13:28:27;;;;;;;6.17;3.05;;;;;;;0.46;45.23;99676.64;1824105;78;21042;-73
2021/12/25 13:31:01;;;;;;;8.18;3.00;;;;;;;0.40;45.20;99680.95;1824117;78;21526;-72
2021/12/25 13:33:34;;;;;;;6.22;3.20;;;;;;;0.36;45.07;99688.13;1822946;77;21058;-72
2021/12/25 13:36:10;;;;;;;6.08;3.00;;;;;;;0.32;44.99;99698.77;1824161;78;21754;-72
2021/12/25 13:39:03;;;;;;;5.55;2.67;;;;;;;0.26;44.77;99691.21;1823536;78;21044;-72
2021/12/25 13:41:43;;;;;;;6.33;3.00;;;;;;;0.25;45.00;99696.69;1854990;77;21010;-71
2021/12/25 13:44:27;;;;;;;5.20;3.00;;;;;;;0.23;45.13;99689.84;1857383;77;20935;-71
2021/12/25 13:47:02;;;;;;;6.45;2.65;;;;;;;0.20;45.31;99702.07;1856833;77;21073;-71
2021/12/25 13:49:40;;;;;;;7.47;3.25;;;;;;;0.19;45.65;99708.31;1836472;77;21092;-71
2021/12/25 13:52:24;;;;;;;7.53;3.70;;;;;;;0.16;45.78;99706.11;1821107;75;21161;-74
2021/12/25 13:55:19;;;;;;;5.92;3.30;;;;;;;0.18;46.03;99713.80;1800783;79;21130;-73
2021/12/25 13:57:54;;;;;;;7.30;3.70;;;;;;;0.16;46.38;99721.86;1830114;77;20943;-71
2021/12/25 14:00:31;;;;;;;7.60;4.60;;;;;;;0.11;46.54;99709.88;1801255;79;21496;-71
2021/12/25 14:03:01;;;;;;;7.28;4.08;;;;;;;0.06;46.69;99707.06;1801313;79;21109;-73
2021/12/25 14:05:31;;;;;;;10.38;4.62;;;;;;;0.04;46.93;99714.37;1800528;79;21007;-73
2021/12/25 14:07:58;;;;;;;12.43;6.28;;;;;;;0.01;47.42;99733.67;1801111;79;21876;-73
2021/12/25 14:10:27;;;;;;;15.35;5.90;;;;;;;-0.05;47.53;99737.41;1801000;79;21517;-73
2021/12/25 14:12:59;;;;;;;20.88;8.80;;;;;;;-0.09;47.70;99738.05;1810063;78;20943;-73
2021/12/25 14:15:29;;;;;;;18.17;9.15;;;;;;;-0.15;47.94;99730.99;1833051;78;21146;-72
2021/12/25 14:17:55;;;;;;;19.30;9.50;;;;;;;-0.20;48.11;99735.53;1834088;78;21628;-72
2021/12/25 14:20:25;;;;;;;15.40;7.75;;;;;;;-0.25;48.43;99743.23;1810565;78;20963;-73
2021/12/25 14:23:05;;;;;;;10.18;4.67;;;;;;;-0.30;48.61;99751.70;1803318;77;21006;-71
2021/12/25 14:25:38;;;;;;;8.38;4.35;;;;;;;-0.35;48.56;99751.53;1801238;79;20986;-71
2021/12/25 14:28:16;;;;;;;8.00;4.28;;;;;;;-0.40;48.69;99755.26;1801166;79;21147;-73
2021/12/25 14:31:07;;;;;;;8.00;4.10;;;;;;;-0.43;48.70;99762.23;1800661;79;21089;-72
2021/12/25 14:33:41;;;;;;;8.73;4.80;;;;;;;-0.47;48.94;99771.02;1801103;79;21042;-74
2021/12/25 14:36:10;;;;;;;9.55;4.42;;;;;;;-0.50;49.15;99769.30;1801265;79;21002;-72
2021/12/25 14:38:41;;;;;;;11.38;5.50;;;;;;;-0.54;49.21;99770.73;1800979;78;20990;-71
2021/12/25 14:41:09;;;;;;;9.48;4.05;;;;;;;-0.56;49.42;99767.49;1801296;79;21978;-73
2021/12/25 14:43:36;;;;;;;8.48;3.98;;;;;;;-0.58;49.55;99772.16;1824761;77;21482;-72
2021/12/25 14:46:04;;;;;;;11.20;4.30;;;;;;;-0.60;49.58;99772.84;1802204;78;21038;-72
2021/12/25 14:48:38;;;;;;;9.35;4.67;;;;;;;-0.62;49.69;99770.44;1801235;79;21030;-72
2021/12/25 14:51:11;;;;;;;12.28;7.12;;;;;;;-0.61;49.87;99771.25;1801046;78;21033;-73
2021/12/25 14:53:54;;;;;;;19.15;10.72;;;;;;;-0.64;50.11;99769.03;1800728;78;21958;-72
2021/12/25 14:56:28;;;;;;;14.70;8.45;;;;;;;-0.63;50.42;99764.87;1800925;79;20966;-72
2021/12/25 14:59:01;;;;;;;13.28;8.65;;;;;;;-0.62;50.54;99771.75;1801000;79;20959;-72
2021/12/25 15:01:32;;;;;;;13.95;7.40;;;;;;;-0.65;50.69;99770.84;1801251;79;20951;-73
2021/12/25 15:04:06;;;;;;;17.32;10.43;;;;;;;-0.71;50.95;99779.52;1801001;78;20974;-73
2021/12/25 15:06:33;;;;;;;22.05;13.40;;;;;;;-0.78;51.11;99786.08;1800983;78;21130;-73
2021/12/25 15:22:25;;;;;;;13.87;8.37;;;;;;;-0.60;51.10;99813.50;1780561;80;23023;-73
2021/12/25 15:24:58;;;;;;;12.30;6.45;;;;;;;-0.75;51.12;99819.77;1821465;78;20964;-72
2021/12/25 15:27:35;;;;;;;15.20;8.15;;;;;;;-0.88;51.39;99817.64;1823047;78;21032;-73
2021/12/25 15:30:07;;;;;;;16.23;8.78;;;;;;;-0.99;51.64;99816.39;1799846;78;21532;-72
2021/12/25 15:32:47;;;;;;;14.33;8.38;;;;;;;-1.07;51.95;99822.64;1790562;78;20900;-73
2021/12/25 15:35:18;;;;;;;15.63;8.43;;;;;;;-1.12;52.29;99835.52;1793105;77;20984;-71
2021/12/25 15:37:50;;;;;;;17.32;9.53;;;;;;;-1.17;52.49;99834.01;1792643;78;21008;-72
2021/12/25 15:40:22;;;;;;;17.73;9.43;;;;;;;-1.22;52.77;99833.30;1820357;78;21130;-72
2021/12/25 15:42:50;;;;;;;18.17;9.88;;;;;;;-1.28;53.00;99838.53;1823207;78;20975;-71
2021/12/25 15:45:18;;;;;;;18.98;10.38;;;;;;;-1.31;53.17;99846.27;1823197;78;21013;-73
2021/12/25 15:47:48;;;;;;;16.57;9.73;;;;;;;-1.33;53.29;99852.70;1822885;78;21517;-71
2021/12/25 15:50:19;;;;;;;18.00;9.95;;;;;;;-1.33;53.33;99861.88;1823109;78;21085;-71
2021/12/25 15:52:46;;;;;;;;;;;;;;;-1.34;53.22;99861.06;1826057;78;21100;-71
2021/12/25 15:55:13;;;;;;;18.73;10.18;;;;;;;-1.37;53.02;99858.03;1823137;78;20158;-72
2021/12/25 15:57:40;;;;;;;23.55;11.28;;;;;;;-1.44;53.06;99852.27;1823170;78;20971;-73
2021/12/25 16:00:11;;;;;;;20.08;10.48;;;;;;;-1.46;53.14;99856.08;1822808;78;21049;-71
2021/12/25 16:02:38;;;;;;;21.77;10.75;;;;;;;-1.48;53.31;99868.55;1823369;78;21014;-73
2021/12/25 16:05:05;;;;;;;19.00;10.48;;;;;;;-1.51;53.51;99868.97;1823144;78;22361;-72
2021/12/25 16:07:33;;;;;;;21.70;12.13;;;;;;;-1.54;53.55;99876.70;1823217;78;20975;-73
2021/12/25 16:09:59;;;;;;;21.52;11.38;;;;;;;-1.55;53.55;99872.95;1823122;78;20971;-72
2021/12/25 16:12:26;;;;;;;18.95;10.98;;;;;;;-1.55;53.71;99883.43;1823490;78;21486;-74
2021/12/25 16:14:53;;;;;;;21.73;11.12;;;;;;;-1.57;53.81;99893.31;1823246;78;21047;-73
2021/12/25 16:17:21;;;;;;;22.05;11.50;;;;;;;-1.60;53.82;99889.27;1823396;78;21556;-73
2021/12/25 16:19:49;;;;;;;21.55;11.95;;;;;;;-1.62;53.79;99906.16;1822951;78;20979;-73
2021/12/25 16:22:15;;;;;;;18.42;9.93;;;;;;;-1.67;53.78;99903.63;1823108;78;21572;-72
2021/12/25 16:24:42;;;;;;;20.95;11.40;;;;;;;-1.71;53.77;99905.02;1822912;78;21026;-73
2021/12/25 16:27:09;;;;;;;20.20;10.20;;;;;;;-1.77;53.62;99911.53;1822921;78;21026;-72
2021/12/25 16:29:36;;;;;;;22.37;11.55;;;;;;;-1.80;53.72;99924.49;1823078;78;21110;-73
2021/12/25 16:32:05;;;;;;;19.98;10.58;;;;;;;-1.86;53.23;99920.02;1822249;78;20947;-73
2021/12/25 16:34:32;;;;;;;20.15;10.28;;;;;;;-1.98;53.43;99924.95;1822672;78;20987;-73
2021/12/25 16:37:03;;;;;;;18.75;10.40;;;;;;;-1.98;53.47;99932.00;1821518;77;20991;-73
2021/12/25 16:39:28;;;;;;;14.78;8.58;;;;;;;-1.98;53.47;99929.39;1822406;78;21098;-73
2021/12/25 16:41:55;;;;;;;18.85;10.25;;;;;;;-1.99;53.37;99931.70;1822766;78;21136;-71
2021/12/25 16:44:22;;;;;;;20.20;9.35;;;;;;;-2.00;53.63;99928.79;1822408;78;21013;-73
2021/12/25 16:46:50;;;;;;;18.10;10.28;;;;;;;-1.99;53.39;99938.25;1801834;77;20957;-72
2021/12/25 16:49:18;;;;;;;20.92;10.53;;;;;;;-2.02;53.44;99936.81;1794188;78;21037;-72
2021/12/25 16:51:45;;;;;;;18.70;11.00;;;;;;;-2.01;53.54;99932.38;1791422;78;21513;-72
2021/12/25 16:54:12;;;;;;;20.27;9.80;;;;;;;-2.00;53.48;99934.83;1797220;78;21122;-72
2021/12/25 16:56:47;;;;;;;21.40;10.68;;;;;;;-2.08;53.31;99941.49;1806238;77;21050;-72
2021/12/25 16:59:12;;;;;;;19.30;9.98;;;;;;;-2.61;54.24;99944.45;1819161;78;21011;-73
2021/12/25 17:01:39;;;;;;;20.65;10.63;;;;;;;-2.49;54.38;99942.16;1686767;77;10000258;-73
2021/12/25 17:04:05;;;;;;;18.92;10.18;;;;;;;-2.16;53.74;99946.38;1796758;78;21813;-70
2021/12/25 17:06:32;;;;;;;18.40;9.88;;;;;;;-2.10;53.57;99955.28;1798129;78;21037;-71
2021/12/25 17:08:58;;;;;;;19.10;9.68;;;;;;;-2.07;53.31;99952.29;1803858;78;21018;-71
2021/12/25 17:11:25;;;;;;;19.32;10.15;;;;;;;-2.08;53.37;99951.16;1820236;78;21086;-74
2021/12/25 17:13:52;;;;;;;16.90;8.65;;;;;;;-2.12;53.35;99955.45;1817361;78;21089;-74
2021/12/25 17:16:18;;;;;;;17.02;9.48;;;;;;;-2.14;53.56;99960.56;1821374;78;21172;-73
2021/12/25 17:18:46;;;;;;;17.12;9.43;;;;;;;-2.18;53.71;99971.09;1820438;77;21007;-72
2021/12/25 17:21:13;;;;;;;18.35;9.43;;;;;;;-2.20;53.91;99968.69;1806389;78;21014;-76
2021/12/25 17:36:27;;;;;;;19.27;10.87;;;;;;;-1.92;53.12;99971.81;1793683;78;23996;-75
2021/12/25 17:38:58;;;;;;;19.45;9.45;;;;;;;-1.98;53.19;99978.61;1789830;80;21693;-76
2021/12/25 17:41:33;;;;;;;16.97;9.05;;;;;;;-2.09;53.18;99979.13;1756531;81;21166;-72
2021/12/25 17:43:53;;;;;;;16.07;8.40;;;;;;;-2.14;53.43;99978.40;1760819;80;21633;-73
2021/12/25 17:46:20;;;;;;;12.88;7.25;;;;;;;-2.16;53.61;99980.89;1763750;80;21620;-74
2021/12/25 17:48:47;;;;;;;16.12;7.90;;;;;;;-2.18;53.55;99988.91;1758458;80;21073;-74
2021/12/25 17:51:14;;;;;;;15.55;8.08;;;;;;;-2.20;53.59;99985.69;1763714;81;21056;-74
2021/12/25 17:53:41;;;;;;;14.10;7.55;;;;;;;-2.22;53.82;99984.25;1764638;81;21137;-74
2021/12/25 17:56:08;;;;;;;15.05;7.33;;;;;;;-2.23;53.90;99989.18;1761603;80;21035;-73
2021/12/25 17:58:34;;;;;;;12.82;6.72;;;;;;;-2.26;53.99;99995.59;1763566;80;21027;-73
2021/12/25 18:01:01;;;;;;;11.35;6.20;;;;;;;-2.27;54.15;100006.22;1762993;81;21050;-72
2021/12/25 18:03:28;;;;;;;11.97;6.35;;;;;;;-2.27;54.20;100011.45;1763462;81;21631;-72
2021/12/25 18:05:54;;;;;;;13.75;6.05;;;;;;;-2.34;54.47;100011.39;1763436;81;21118;-73
2021/12/25 18:08:23;;;;;;;13.50;6.15;;;;;;;-2.37;54.63;100013.90;1764011;81;21015;-73
2021/12/25 18:10:49;;;;;;;12.53;6.67;;;;;;;-2.38;54.84;100016.69;1763811;81;21070;-74
2021/12/25 18:13:16;;;;;;;13.05;7.25;;;;;;;-2.39;55.06;100011.95;1763970;81;21057;-74
2021/12/25 18:15:42;;;;;;;12.15;6.70;;;;;;;-2.43;55.15;100025.09;1767009;80;21074;-74
2021/12/25 18:18:09;;;;;;;13.15;6.72;;;;;;;-2.46;55.19;100016.81;1754028;80;21112;-74
2021/12/25 18:20:41;;;;;;;14.20;7.62;;;;;;;-2.54;55.21;100019.03;1762596;81;21140;-75
2021/12/25 18:23:11;;;;;;;13.30;7.07;;;;;;;-2.57;55.33;100018.59;1763161;81;21556;-76
2021/12/25 18:25:48;;;;;;;14.20;7.00;;;;;;;-2.61;55.61;100025.49;1637218;80;9999913;-76
2021/12/25 18:28:16;;;;;;;14.70;7.62;;;;;;;-2.67;55.90;100027.53;1768388;79;21112;-74
2021/12/25 18:30:45;;;;;;;12.07;7.30;;;;;;;-2.74;56.06;100021.42;1765997;79;21038;-72
2021/12/25 18:33:12;;;;;;;11.08;6.22;;;;;;;-2.75;56.15;100021.11;1763284;80;21039;-73
2021/12/25 18:35:39;;;;;;;11.33;6.22;;;;;;;-2.76;56.31;100016.05;1762917;81;21066;-72
2021/12/25 18:38:08;;;;;;;10.72;5.47;;;;;;;-2.79;56.53;100019.06;1766059;79;21018;-73
2021/12/25 18:40:35;;;;;;;11.03;5.80;;;;;;;-2.83;56.67;100012.05;1758670;79;21524;-74
2021/12/25 18:43:04;;;;;;;12.65;6.75;;;;;;;-2.85;56.91;100016.67;1762407;81;21062;-73
2021/12/25 18:45:31;;;;;;;10.43;5.92;;;;;;;-2.83;56.93;100023.81;1771728;80;21129;-71
2021/12/25 18:47:59;;;;;;;15.32;8.15;;;;;;;-2.84;56.87;100026.13;1766451;79;21568;-71
2021/12/25 18:50:26;;;;;;;13.18;6.80;;;;;;;-2.86;57.00;100025.52;1762284;81;21086;-71
2021/12/25 18:52:55;;;;;;;12.98;7.15;;;;;;;-2.87;57.08;100041.66;1763807;80;21513;-71
2021/12/25 18:55:23;;;;;;;15.68;8.20;;;;;;;-2.91;57.15;100044.34;1763678;81;21056;-72
2021/12/25 18:57:50;;;;;;;15.25;8.48;;;;;;;-2.92;57.26;100045.84;1763463;81;21059;-73
2021/12/25 19:00:22;;;;;;;14.38;8.05;;;;;;;-2.94;57.28;100049.92;1760805;81;21046;-73
2021/12/25 19:02:50;;;;;;;16.40;9.53;;;;;;;-2.99;57.33;100050.17;1761913;80;21117;-73
2021/12/25 19:05:19;;;;;;;18.30;10.08;;;;;;;-2.99;57.33;100050.17;1758505;80;21131;-72
2021/12/25 19:07:49;;;;;;;18.00;9.75;;;;;;;-3.00;57.32;100053.75;1762810;80;21508;-72
2021/12/25 19:10:16;;;;;;;18.32;10.38;;;;;;;-3.10;57.43;100060.05;1753036;80;21121;-73
